createdAt,value
2022-09-26T00:00:02.434Z,1001.8
2022-09-26T00:15:02.838Z,1001.4
2022-09-26T00:30:02.289Z,1001.2
2022-09-26T00:45:02.715Z,1001.2
2022-09-26T01:00:03.272Z,1000.9
2022-09-26T01:15:02.618Z,1000.6
2022-09-26T01:30:03.289Z,999.8
2022-09-26T01:45:02.482Z,1000.1
2022-09-26T02:00:02.921Z,999.9
2022-09-26T02:15:02.386Z,999.9
2022-09-26T02:30:02.831Z,999.4
2022-09-26T02:45:03.276Z,999.0
2022-09-26T03:00:02.694Z,998.9
2022-09-26T03:15:03.303Z,998.7
2022-09-26T03:30:02.573Z,998.5
2022-09-26T03:45:03.044Z,998.2
2022-09-26T04:00:02.460Z,997.9
2022-09-26T04:15:02.920Z,997.7
2022-09-26T04:30:02.352Z,997.4
2022-09-26T04:45:02.789Z,997.3
2022-09-26T05:00:03.464Z,996.9
2022-09-26T05:15:02.677Z,996.8
2022-09-26T05:30:03.305Z,996.6
2022-09-26T05:45:02.533Z,996.4
2022-09-26T06:00:02.971Z,996.4
2022-09-26T06:15:02.429Z,996.3
2022-09-26T06:30:02.891Z,996.1
2022-09-26T06:45:02.334Z,995.9
2022-09-26T07:00:02.771Z,995.7
2022-09-26T07:15:03.318Z,995.3
2022-09-26T07:30:02.674Z,995.2
2022-09-26T07:45:24.604Z,995.1
2022-09-26T08:00:03.563Z,994.9
2022-09-26T08:15:02.986Z,994.8
2022-09-26T08:30:02.460Z,994.8
2022-09-26T08:45:02.893Z,994.8
2022-09-26T09:00:02.366Z,994.7
2022-09-26T09:15:23.940Z,994.5
2022-09-26T09:30:03.262Z,994.4
2022-09-26T09:45:02.667Z,994.2
2022-09-26T10:00:03.345Z,994.1
2022-09-26T10:15:02.553Z,994.0
2022-09-26T10:30:02.959Z,993.6
2022-09-26T10:45:02.415Z,993.2
2022-09-26T11:00:02.867Z,993.1
2022-09-26T11:15:02.362Z,993.2
2022-09-26T11:30:02.716Z,992.9
2022-09-26T11:45:03.393Z,992.7
2022-09-26T12:00:02.609Z,992.6
2022-09-26T12:15:03.069Z,992.2
2022-09-26T12:30:02.504Z,992.0
2022-09-26T12:45:02.928Z,991.8
2022-09-26T13:00:02.412Z,991.6
2022-09-26T13:15:02.817Z,991.4
2022-09-26T13:30:02.409Z,991.2
2022-09-26T13:45:02.715Z,990.9
2022-09-26T14:00:03.382Z,991.0
2022-09-26T14:15:02.597Z,990.9
2022-09-26T14:30:03.000Z,990.6
2022-09-26T14:45:02.433Z,990.3
2022-09-26T15:00:02.918Z,990.2
2022-09-26T15:15:04.889Z,990.1
2022-09-26T15:30:02.794Z,989.9
2022-09-26T15:45:03.435Z,989.8
2022-09-26T16:00:02.694Z,989.6
2022-09-26T16:15:03.144Z,989.5
2022-09-26T16:30:05.054Z,989.3
2022-09-26T16:45:02.992Z,989.2
2022-09-26T17:00:02.431Z,989.0
2022-09-26T17:15:02.894Z,988.9
2022-09-26T17:30:02.463Z,988.9
2022-09-26T17:45:02.762Z,988.7
2022-09-26T18:00:03.445Z,988.5
2022-09-26T18:15:02.626Z,988.4
2022-09-26T18:30:03.097Z,988.4
2022-09-26T18:45:02.555Z,988.2
2022-09-26T19:00:02.994Z,988.1
2022-09-26T19:15:02.487Z,988.1
2022-09-26T19:30:02.883Z,987.9
2022-09-26T19:45:02.493Z,987.7
2022-09-26T20:00:02.736Z,987.6
2022-09-26T20:15:03.201Z,987.5
2022-09-26T20:30:02.579Z,987.3
2022-09-26T20:45:03.064Z,987.3
2022-09-26T21:00:02.491Z,987.1
2022-09-26T21:15:02.939Z,987.0
2022-09-26T21:30:02.502Z,987.0
2022-09-26T21:45:02.806Z,987.1
2022-09-26T22:00:02.486Z,987.0
2022-09-26T22:15:02.691Z,986.7
2022-09-26T22:30:03.141Z,986.6
2022-09-26T22:45:02.580Z,986.5
2022-09-26T23:00:03.015Z,986.5
2022-09-26T23:15:02.520Z,986.5
2022-09-26T23:30:02.861Z,986.3
2022-09-26T23:45:02.500Z,986.2
